sensor_id;sensor_type;location;lat;lon;timestamp;P1;durP1;ratioP1;P2;durP2;ratioP2
18166;SDS011;9208;42.688;23.404;2022-10-16T00:02:18;5.73;;;4.30;;
18166;SDS011;9208;42.688;23.404;2022-10-16T00:04:44;4.33;;;3.90;;
18166;SDS011;9208;42.688;23.404;2022-10-16T00:07:09;4.40;;;3.93;;
18166;SDS011;9208;42.688;23.404;2022-10-16T00:09:34;5.20;;;4.70;;
18166;SDS011;9208;42.688;23.404;2022-10-16T00:12:00;6.43;;;5.10;;
18166;SDS011;9208;42.688;23.404;2022-10-16T00:14:25;5.73;;;5.13;;
18166;SDS011;9208;42.688;23.404;2022-10-16T00:16:51;5.50;;;4.87;;
18166;SDS011;9208;42.688;23.404;2022-10-16T00:19:16;5.23;;;4.73;;
18166;SDS011;9208;42.688;23.404;2022-10-16T00:21:42;6.03;;;5.00;;
18166;SDS011;9208;42.688;23.404;2022-10-16T00:24:08;6.63;;;5.17;;
18166;SDS011;9208;42.688;23.404;2022-10-16T00:26:34;7.43;;;5.60;;
18166;SDS011;9208;42.688;23.404;2022-10-16T00:29:02;8.40;;;5.33;;
18166;SDS011;9208;42.688;23.404;2022-10-16T00:31:32;7.50;;;5.43;;
18166;SDS011;9208;42.688;23.404;2022-10-16T00:33:58;6.10;;;5.17;;
18166;SDS011;9208;42.688;23.404;2022-10-16T00:36:24;7.47;;;5.20;;
18166;SDS011;9208;42.688;23.404;2022-10-16T00:38:51;6.87;;;6.03;;
18166;SDS011;9208;42.688;23.404;2022-10-16T00:41:23;6.97;;;5.97;;
18166;SDS011;9208;42.688;23.404;2022-10-16T00:43:50;7.17;;;6.47;;
18166;SDS011;9208;42.688;23.404;2022-10-16T00:51:25;12.47;;;7.13;;
18166;SDS011;9208;42.688;23.404;2022-10-16T00:53:57;9.03;;;7.33;;
18166;SDS011;9208;42.688;23.404;2022-10-16T00:56:24;7.57;;;6.73;;
18166;SDS011;9208;42.688;23.404;2022-10-16T00:58:50;7.43;;;6.73;;
18166;SDS011;9208;42.688;23.404;2022-10-16T01:01:16;8.47;;;7.00;;
18166;SDS011;9208;42.688;23.404;2022-10-16T01:03:41;7.93;;;7.13;;
18166;SDS011;9208;42.688;23.404;2022-10-16T01:11:19;8.97;;;6.80;;
18166;SDS011;9208;42.688;23.404;2022-10-16T01:14:11;8.43;;;7.13;;
18166;SDS011;9208;42.688;23.404;2022-10-16T01:16:49;7.50;;;6.40;;
18166;SDS011;9208;42.688;23.404;2022-10-16T01:19:41;9.93;;;7.13;;
18166;SDS011;9208;42.688;23.404;2022-10-16T01:22:17;9.40;;;7.43;;
18166;SDS011;9208;42.688;23.404;2022-10-16T01:24:47;9.60;;;7.20;;
18166;SDS011;9208;42.688;23.404;2022-10-16T01:27:15;14.53;;;6.90;;
18166;SDS011;9208;42.688;23.404;2022-10-16T01:38:01;8.37;;;6.47;;
18166;SDS011;9208;42.688;23.404;2022-10-16T01:40:32;8.00;;;6.73;;
18166;SDS011;9208;42.688;23.404;2022-10-16T01:43:05;7.80;;;6.97;;
18166;SDS011;9208;42.688;23.404;2022-10-16T01:45:33;8.13;;;6.73;;
18166;SDS011;9208;42.688;23.404;2022-10-16T01:48:00;8.40;;;6.93;;
18166;SDS011;9208;42.688;23.404;2022-10-16T01:50:31;7.33;;;6.57;;
18166;SDS011;9208;42.688;23.404;2022-10-16T01:53:00;7.67;;;6.70;;
18166;SDS011;9208;42.688;23.404;2022-10-16T01:55:29;6.60;;;5.90;;
18166;SDS011;9208;42.688;23.404;2022-10-16T01:57:59;8.20;;;6.57;;
18166;SDS011;9208;42.688;23.404;2022-10-16T02:00:27;7.37;;;6.60;;
18166;SDS011;9208;42.688;23.404;2022-10-16T02:02:54;7.57;;;6.00;;
18166;SDS011;9208;42.688;23.404;2022-10-16T02:05:30;8.03;;;6.60;;
18166;SDS011;9208;42.688;23.404;2022-10-16T02:07:59;9.33;;;6.90;;
18166;SDS011;9208;42.688;23.404;2022-10-16T02:10:25;7.90;;;6.40;;
18166;SDS011;9208;42.688;23.404;2022-10-16T02:13:17;6.83;;;6.10;;
18166;SDS011;9208;42.688;23.404;2022-10-16T02:15:48;5.93;;;5.20;;
18166;SDS011;9208;42.688;23.404;2022-10-16T02:18:13;5.67;;;5.13;;
18166;SDS011;9208;42.688;23.404;2022-10-16T02:21:22;6.40;;;5.57;;
18166;SDS011;9208;42.688;23.404;2022-10-16T02:26:36;5.57;;;5.03;;
18166;SDS011;9208;42.688;23.404;2022-10-16T02:29:12;6.27;;;5.33;;
18166;SDS011;9208;42.688;23.404;2022-10-16T02:31:42;8.10;;;5.90;;
18166;SDS011;9208;42.688;23.404;2022-10-16T02:34:12;6.40;;;5.80;;
18166;SDS011;9208;42.688;23.404;2022-10-16T02:36:41;7.40;;;6.67;;
18166;SDS011;9208;42.688;23.404;2022-10-16T02:39:08;9.23;;;6.60;;
18166;SDS011;9208;42.688;23.404;2022-10-16T02:41:35;6.70;;;6.00;;
18166;SDS011;9208;42.688;23.404;2022-10-16T02:44:01;7.47;;;6.30;;
18166;SDS011;9208;42.688;23.404;2022-10-16T02:46:26;7.17;;;6.27;;
18166;SDS011;9208;42.688;23.404;2022-10-16T02:48:52;7.13;;;6.23;;
18166;SDS011;9208;42.688;23.404;2022-10-16T02:51:17;6.67;;;5.97;;
18166;SDS011;9208;42.688;23.404;2022-10-16T02:53:43;7.80;;;5.83;;
18166;SDS011;9208;42.688;23.404;2022-10-16T02:56:08;7.30;;;6.40;;
18166;SDS011;9208;42.688;23.404;2022-10-16T02:58:34;7.47;;;6.53;;
18166;SDS011;9208;42.688;23.404;2022-10-16T03:00:59;7.07;;;6.37;;
18166;SDS011;9208;42.688;23.404;2022-10-16T03:03:25;10.27;;;6.80;;
18166;SDS011;9208;42.688;23.404;2022-10-16T03:05:50;8.67;;;6.40;;
18166;SDS011;9208;42.688;23.404;2022-10-16T03:08:16;7.20;;;6.50;;
18166;SDS011;9208;42.688;23.404;2022-10-16T03:10:42;6.90;;;6.20;;
18166;SDS011;9208;42.688;23.404;2022-10-16T03:13:07;6.40;;;5.80;;
18166;SDS011;9208;42.688;23.404;2022-10-16T03:15:33;8.27;;;6.13;;
18166;SDS011;9208;42.688;23.404;2022-10-16T03:17:58;8.70;;;6.10;;
18166;SDS011;9208;42.688;23.404;2022-10-16T03:20:25;6.30;;;5.80;;
18166;SDS011;9208;42.688;23.404;2022-10-16T03:22:51;7.83;;;7.03;;
18166;SDS011;9208;42.688;23.404;2022-10-16T03:25:17;7.20;;;5.90;;
18166;SDS011;9208;42.688;23.404;2022-10-16T03:27:42;9.53;;;6.93;;
18166;SDS011;9208;42.688;23.404;2022-10-16T03:30:08;8.27;;;6.30;;
18166;SDS011;9208;42.688;23.404;2022-10-16T03:32:34;6.40;;;5.80;;
18166;SDS011;9208;42.688;23.404;2022-10-16T03:34:59;6.63;;;5.93;;
18166;SDS011;9208;42.688;23.404;2022-10-16T03:37:25;6.70;;;6.00;;
18166;SDS011;9208;42.688;23.404;2022-10-16T03:39:50;7.97;;;6.73;;
18166;SDS011;9208;42.688;23.404;2022-10-16T03:42:16;6.63;;;6.00;;
18166;SDS011;9208;42.688;23.404;2022-10-16T03:44:42;7.47;;;5.93;;
18166;SDS011;9208;42.688;23.404;2022-10-16T03:47:07;8.70;;;5.70;;
18166;SDS011;9208;42.688;23.404;2022-10-16T03:49:32;9.13;;;6.43;;
18166;SDS011;9208;42.688;23.404;2022-10-16T03:51:58;6.60;;;5.90;;
18166;SDS011;9208;42.688;23.404;2022-10-16T03:54:23;8.10;;;6.27;;
18166;SDS011;9208;42.688;23.404;2022-10-16T03:56:49;7.53;;;5.80;;
18166;SDS011;9208;42.688;23.404;2022-10-16T03:59:14;7.47;;;6.67;;
18166;SDS011;9208;42.688;23.404;2022-10-16T04:01:40;6.43;;;5.90;;
18166;SDS011;9208;42.688;23.404;2022-10-16T04:04:05;8.63;;;5.83;;
18166;SDS011;9208;42.688;23.404;2022-10-16T04:06:31;7.20;;;6.43;;
18166;SDS011;9208;42.688;23.404;2022-10-16T04:08:56;7.27;;;6.27;;
18166;SDS011;9208;42.688;23.404;2022-10-16T04:11:22;8.50;;;5.77;;
18166;SDS011;9208;42.688;23.404;2022-10-16T04:13:50;7.93;;;6.43;;
18166;SDS011;9208;42.688;23.404;2022-10-16T04:16:16;7.07;;;5.80;;
18166;SDS011;9208;42.688;23.404;2022-10-16T04:18:41;7.13;;;5.50;;
18166;SDS011;9208;42.688;23.404;2022-10-16T04:21:07;5.37;;;4.80;;
18166;SDS011;9208;42.688;23.404;2022-10-16T04:23:32;6.17;;;5.27;;
18166;SDS011;9208;42.688;23.404;2022-10-16T04:25:58;7.73;;;5.90;;
18166;SDS011;9208;42.688;23.404;2022-10-16T04:28:24;7.30;;;5.70;;
18166;SDS011;9208;42.688;23.404;2022-10-16T04:30:50;7.43;;;6.07;;
18166;SDS011;9208;42.688;23.404;2022-10-16T04:33:15;6.90;;;5.90;;
18166;SDS011;9208;42.688;23.404;2022-10-16T04:35:41;6.67;;;6.00;;
18166;SDS011;9208;42.688;23.404;2022-10-16T04:38:06;7.27;;;5.97;;
18166;SDS011;9208;42.688;23.404;2022-10-16T04:40:32;7.13;;;6.10;;
18166;SDS011;9208;42.688;23.404;2022-10-16T04:42:58;7.53;;;6.23;;
18166;SDS011;9208;42.688;23.404;2022-10-16T04:45:24;6.50;;;5.90;;
18166;SDS011;9208;42.688;23.404;2022-10-16T04:47:52;6.80;;;6.10;;
18166;SDS011;9208;42.688;23.404;2022-10-16T04:50:17;6.73;;;5.63;;
18166;SDS011;9208;42.688;23.404;2022-10-16T04:52:43;7.30;;;5.97;;
18166;SDS011;9208;42.688;23.404;2022-10-16T04:55:08;7.43;;;6.00;;
18166;SDS011;9208;42.688;23.404;2022-10-16T04:57:34;8.00;;;6.10;;
18166;SDS011;9208;42.688;23.404;2022-10-16T04:59:59;6.83;;;6.17;;
18166;SDS011;9208;42.688;23.404;2022-10-16T05:02:25;7.27;;;6.00;;
18166;SDS011;9208;42.688;23.404;2022-10-16T05:04:51;8.90;;;6.40;;
18166;SDS011;9208;42.688;23.404;2022-10-16T05:07:17;7.93;;;7.10;;
18166;SDS011;9208;42.688;23.404;2022-10-16T05:09:42;10.87;;;6.50;;
18166;SDS011;9208;42.688;23.404;2022-10-16T05:12:08;6.63;;;6.03;;
18166;SDS011;9208;42.688;23.404;2022-10-16T05:14:33;8.43;;;6.77;;
18166;SDS011;9208;42.688;23.404;2022-10-16T05:16:59;8.47;;;6.43;;
18166;SDS011;9208;42.688;23.404;2022-10-16T05:19:25;8.23;;;6.07;;
18166;SDS011;9208;42.688;23.404;2022-10-16T05:21:51;7.07;;;6.30;;
18166;SDS011;9208;42.688;23.404;2022-10-16T05:24:16;6.93;;;6.23;;
18166;SDS011;9208;42.688;23.404;2022-10-16T05:26:42;12.13;;;7.70;;
18166;SDS011;9208;42.688;23.404;2022-10-16T05:29:07;6.60;;;5.90;;
18166;SDS011;9208;42.688;23.404;2022-10-16T05:31:33;7.37;;;6.00;;
18166;SDS011;9208;42.688;23.404;2022-10-16T05:33:59;7.43;;;5.97;;
18166;SDS011;9208;42.688;23.404;2022-10-16T05:36:25;10.93;;;6.43;;
18166;SDS011;9208;42.688;23.404;2022-10-16T05:38:51;7.00;;;5.87;;
18166;SDS011;9208;42.688;23.404;2022-10-16T05:41:16;6.83;;;6.13;;
18166;SDS011;9208;42.688;23.404;2022-10-16T05:43:46;6.47;;;5.87;;
18166;SDS011;9208;42.688;23.404;2022-10-16T05:46:13;9.63;;;6.13;;
18166;SDS011;9208;42.688;23.404;2022-10-16T05:48:38;8.03;;;6.63;;
18166;SDS011;9208;42.688;23.404;2022-10-16T05:51:08;7.93;;;5.67;;
18166;SDS011;9208;42.688;23.404;2022-10-16T05:53:36;7.33;;;5.60;;
18166;SDS011;9208;42.688;23.404;2022-10-16T05:56:03;6.90;;;5.37;;
18166;SDS011;9208;42.688;23.404;2022-10-16T05:58:30;6.67;;;6.00;;
18166;SDS011;9208;42.688;23.404;2022-10-16T06:01:02;6.77;;;5.77;;
18166;SDS011;9208;42.688;23.404;2022-10-16T06:03:34;6.20;;;5.60;;
18166;SDS011;9208;42.688;23.404;2022-10-16T06:06:06;9.13;;;6.17;;
18166;SDS011;9208;42.688;23.404;2022-10-16T06:08:36;7.30;;;6.60;;
18166;SDS011;9208;42.688;23.404;2022-10-16T06:11:02;7.73;;;6.67;;
18166;SDS011;9208;42.688;23.404;2022-10-16T06:13:33;7.10;;;6.43;;
18166;SDS011;9208;42.688;23.404;2022-10-16T06:15:59;7.50;;;6.80;;
18166;SDS011;9208;42.688;23.404;2022-10-16T06:18:26;8.03;;;6.40;;
18166;SDS011;9208;42.688;23.404;2022-10-16T06:20:52;7.17;;;6.13;;
18166;SDS011;9208;42.688;23.404;2022-10-16T06:23:17;6.97;;;6.03;;
18166;SDS011;9208;42.688;23.404;2022-10-16T06:25:43;11.30;;;6.67;;
18166;SDS011;9208;42.688;23.404;2022-10-16T06:28:08;8.27;;;6.53;;
18166;SDS011;9208;42.688;23.404;2022-10-16T06:30:34;9.37;;;7.00;;
18166;SDS011;9208;42.688;23.404;2022-10-16T06:32:59;7.27;;;6.57;;
18166;SDS011;9208;42.688;23.404;2022-10-16T06:35:24;7.40;;;6.47;;
18166;SDS011;9208;42.688;23.404;2022-10-16T06:37:50;12.07;;;7.33;;
18166;SDS011;9208;42.688;23.404;2022-10-16T06:40:18;7.10;;;6.40;;
18166;SDS011;9208;42.688;23.404;2022-10-16T06:42:43;7.43;;;6.63;;
18166;SDS011;9208;42.688;23.404;2022-10-16T06:45:09;8.53;;;7.20;;
18166;SDS011;9208;42.688;23.404;2022-10-16T06:47:35;7.40;;;6.37;;
18166;SDS011;9208;42.688;23.404;2022-10-16T06:50:00;7.53;;;6.80;;
18166;SDS011;9208;42.688;23.404;2022-10-16T06:52:27;6.77;;;6.07;;
18166;SDS011;9208;42.688;23.404;2022-10-16T06:54:53;6.73;;;6.03;;
18166;SDS011;9208;42.688;23.404;2022-10-16T06:57:18;9.60;;;6.50;;
18166;SDS011;9208;42.688;23.404;2022-10-16T06:59:44;6.73;;;6.13;;
18166;SDS011;9208;42.688;23.404;2022-10-16T07:02:09;12.17;;;6.80;;
18166;SDS011;9208;42.688;23.404;2022-10-16T07:04:35;6.43;;;5.80;;
18166;SDS011;9208;42.688;23.404;2022-10-16T07:07:01;16.93;;;7.57;;
18166;SDS011;9208;42.688;23.404;2022-10-16T07:09:26;6.83;;;5.83;;
18166;SDS011;9208;42.688;23.404;2022-10-16T07:11:52;10.53;;;6.33;;
18166;SDS011;9208;42.688;23.404;2022-10-16T07:14:19;8.90;;;6.43;;
18166;SDS011;9208;42.688;23.404;2022-10-16T07:16:46;7.10;;;6.27;;
18166;SDS011;9208;42.688;23.404;2022-10-16T07:19:12;8.83;;;5.90;;
18166;SDS011;9208;42.688;23.404;2022-10-16T07:21:39;9.90;;;6.03;;
18166;SDS011;9208;42.688;23.404;2022-10-16T07:24:06;10.20;;;5.83;;
18166;SDS011;9208;42.688;23.404;2022-10-16T07:26:36;9.07;;;6.37;;
18166;SDS011;9208;42.688;23.404;2022-10-16T07:29:04;7.23;;;5.73;;
18166;SDS011;9208;42.688;23.404;2022-10-16T07:31:31;7.23;;;6.43;;
18166;SDS011;9208;42.688;23.404;2022-10-16T07:33:57;6.90;;;6.20;;
18166;SDS011;9208;42.688;23.404;2022-10-16T07:36:26;7.23;;;6.37;;
18166;SDS011;9208;42.688;23.404;2022-10-16T07:38:51;7.97;;;6.43;;
18166;SDS011;9208;42.688;23.404;2022-10-16T07:41:17;8.00;;;6.60;;
18166;SDS011;9208;42.688;23.404;2022-10-16T07:43:47;12.23;;;6.73;;
18166;SDS011;9208;42.688;23.404;2022-10-16T07:46:14;8.53;;;6.47;;
18166;SDS011;9208;42.688;23.404;2022-10-16T07:48:41;7.23;;;6.53;;
18166;SDS011;9208;42.688;23.404;2022-10-16T07:51:10;6.73;;;6.13;;
18166;SDS011;9208;42.688;23.404;2022-10-16T07:53:36;8.37;;;6.70;;
18166;SDS011;9208;42.688;23.404;2022-10-16T07:56:03;8.80;;;7.03;;
18166;SDS011;9208;42.688;23.404;2022-10-16T07:58:31;7.70;;;7.00;;
18166;SDS011;9208;42.688;23.404;2022-10-16T08:00:57;7.70;;;7.00;;
18166;SDS011;9208;42.688;23.404;2022-10-16T08:03:23;8.27;;;6.53;;
18166;SDS011;9208;42.688;23.404;2022-10-16T08:05:49;8.03;;;6.43;;
18166;SDS011;9208;42.688;23.404;2022-10-16T08:08:15;6.23;;;5.73;;
18166;SDS011;9208;42.688;23.404;2022-10-16T08:10:42;7.57;;;6.87;;
18166;SDS011;9208;42.688;23.404;2022-10-16T08:13:07;8.23;;;6.10;;
18166;SDS011;9208;42.688;23.404;2022-10-16T08:15:33;6.57;;;5.97;;
18166;SDS011;9208;42.688;23.404;2022-10-16T08:17:59;9.80;;;6.00;;
18166;SDS011;9208;42.688;23.404;2022-10-16T08:20:27;6.43;;;5.83;;
18166;SDS011;9208;42.688;23.404;2022-10-16T08:22:54;5.97;;;5.37;;
18166;SDS011;9208;42.688;23.404;2022-10-16T08:25:23;7.63;;;5.70;;
18166;SDS011;9208;42.688;23.404;2022-10-16T08:27:49;6.10;;;5.40;;
18166;SDS011;9208;42.688;23.404;2022-10-16T08:30:16;7.13;;;5.53;;
18166;SDS011;9208;42.688;23.404;2022-10-16T08:32:42;5.53;;;5.03;;
18166;SDS011;9208;42.688;23.404;2022-10-16T08:35:09;7.80;;;5.13;;
18166;SDS011;9208;42.688;23.404;2022-10-16T08:37:35;7.13;;;5.20;;
18166;SDS011;9208;42.688;23.404;2022-10-16T08:40:02;6.80;;;4.90;;
18166;SDS011;9208;42.688;23.404;2022-10-16T08:48:14;4.87;;;3.70;;
18166;SDS011;9208;42.688;23.404;2022-10-16T08:50:52;3.53;;;3.23;;
18166;SDS011;9208;42.688;23.404;2022-10-16T08:53:26;4.40;;;3.83;;
18166;SDS011;9208;42.688;23.404;2022-10-16T08:55:56;4.20;;;3.30;;
18166;SDS011;9208;42.688;23.404;2022-10-16T08:58:26;5.07;;;3.30;;
18166;SDS011;9208;42.688;23.404;2022-10-16T09:00:54;4.47;;;3.60;;
18166;SDS011;9208;42.688;23.404;2022-10-16T09:06:26;3.57;;;3.27;;
18166;SDS011;9208;42.688;23.404;2022-10-16T09:16:44;3.60;;;3.30;;
18166;SDS011;9208;42.688;23.404;2022-10-16T09:19:28;5.00;;;3.57;;
18166;SDS011;9208;42.688;23.404;2022-10-16T09:21:59;4.63;;;3.37;;
18166;SDS011;9208;42.688;23.404;2022-10-16T09:24:35;4.70;;;3.67;;
18166;SDS011;9208;42.688;23.404;2022-10-16T09:27:02;6.87;;;4.00;;
18166;SDS011;9208;42.688;23.404;2022-10-16T09:29:27;3.63;;;3.33;;
18166;SDS011;9208;42.688;23.404;2022-10-16T09:31:53;4.30;;;3.60;;
18166;SDS011;9208;42.688;23.404;2022-10-16T09:34:40;9.43;;;3.73;;
18166;SDS011;9208;42.688;23.404;2022-10-16T09:37:12;4.37;;;3.27;;
18166;SDS011;9208;42.688;23.404;2022-10-16T09:39:46;3.60;;;3.30;;
18166;SDS011;9208;42.688;23.404;2022-10-16T09:42:37;4.27;;;3.87;;
18166;SDS011;9208;42.688;23.404;2022-10-16T09:45:02;6.57;;;3.50;;
18166;SDS011;9208;42.688;23.404;2022-10-16T09:47:31;4.43;;;3.47;;
18166;SDS011;9208;42.688;23.404;2022-10-16T09:50:00;14.87;;;3.80;;
18166;SDS011;9208;42.688;23.404;2022-10-16T09:52:31;4.00;;;3.60;;
18166;SDS011;9208;42.688;23.404;2022-10-16T09:55:01;4.90;;;3.70;;
18166;SDS011;9208;42.688;23.404;2022-10-16T09:57:37;4.73;;;4.10;;
18166;SDS011;9208;42.688;23.404;2022-10-16T10:00:16;4.27;;;3.63;;
18166;SDS011;9208;42.688;23.404;2022-10-16T10:02:42;9.83;;;4.13;;
18166;SDS011;9208;42.688;23.404;2022-10-16T10:05:21;6.10;;;3.93;;
18166;SDS011;9208;42.688;23.404;2022-10-16T10:08:01;6.00;;;3.93;;
18166;SDS011;9208;42.688;23.404;2022-10-16T10:10:37;3.33;;;3.10;;
18166;SDS011;9208;42.688;23.404;2022-10-16T10:13:20;5.33;;;3.97;;
18166;SDS011;9208;42.688;23.404;2022-10-16T10:15:47;5.30;;;3.77;;
18166;SDS011;9208;42.688;23.404;2022-10-16T10:18:17;3.70;;;3.40;;
18166;SDS011;9208;42.688;23.404;2022-10-16T10:20:45;5.10;;;3.20;;
18166;SDS011;9208;42.688;23.404;2022-10-16T10:23:18;5.47;;;3.30;;
18166;SDS011;9208;42.688;23.404;2022-10-16T10:25:52;3.93;;;3.50;;
18166;SDS011;9208;42.688;23.404;2022-10-16T10:31:10;3.43;;;3.13;;
18166;SDS011;9208;42.688;23.404;2022-10-16T10:36:29;3.30;;;3.07;;
18166;SDS011;9208;42.688;23.404;2022-10-16T10:47:27;3.37;;;3.07;;
18166;SDS011;9208;42.688;23.404;2022-10-16T10:50:02;4.27;;;3.23;;
18166;SDS011;9208;42.688;23.404;2022-10-16T10:52:52;3.33;;;3.03;;
18166;SDS011;9208;42.688;23.404;2022-10-16T11:08:36;3.00;;;2.80;;
18166;SDS011;9208;42.688;23.404;2022-10-16T11:16:19;2.57;;;2.33;;
18166;SDS011;9208;42.688;23.404;2022-10-16T11:21:41;2.73;;;2.53;;
18166;SDS011;9208;42.688;23.404;2022-10-16T11:26:51;3.63;;;2.90;;
18166;SDS011;9208;42.688;23.404;2022-10-16T11:29:26;3.47;;;2.50;;
18166;SDS011;9208;42.688;23.404;2022-10-16T11:32:06;3.03;;;2.50;;
18166;SDS011;9208;42.688;23.404;2022-10-16T11:34:52;3.40;;;2.60;;
18166;SDS011;9208;42.688;23.404;2022-10-16T11:37:27;3.03;;;2.40;;
18166;SDS011;9208;42.688;23.404;2022-10-16T11:40:03;2.90;;;2.60;;
18166;SDS011;9208;42.688;23.404;2022-10-16T11:42:51;4.33;;;2.60;;
18166;SDS011;9208;42.688;23.404;2022-10-16T11:45:25;3.97;;;2.87;;
18166;SDS011;9208;42.688;23.404;2022-10-16T11:48:00;5.10;;;2.83;;
18166;SDS011;9208;42.688;23.404;2022-10-16T11:50:52;4.53;;;2.67;;
18166;SDS011;9208;42.688;23.404;2022-10-16T11:56:03;2.70;;;2.50;;
18166;SDS011;9208;42.688;23.404;2022-10-16T11:58:49;3.07;;;2.80;;
18166;SDS011;9208;42.688;23.404;2022-10-16T12:01:27;3.23;;;2.70;;
18166;SDS011;9208;42.688;23.404;2022-10-16T12:09:30;3.20;;;2.60;;
18166;SDS011;9208;42.688;23.404;2022-10-16T12:11:57;2.50;;;2.23;;
18166;SDS011;9208;42.688;23.404;2022-10-16T12:17:00;3.30;;;2.47;;
18166;SDS011;9208;42.688;23.404;2022-10-16T12:19:28;2.47;;;2.27;;
18166;SDS011;9208;42.688;23.404;2022-10-16T12:21:56;2.60;;;2.40;;
18166;SDS011;9208;42.688;23.404;2022-10-16T12:27:04;2.60;;;2.40;;
18166;SDS011;9208;42.688;23.404;2022-10-16T12:29:41;3.13;;;2.50;;
18166;SDS011;9208;42.688;23.404;2022-10-16T12:35:17;5.40;;;3.03;;
18166;SDS011;9208;42.688;23.404;2022-10-16T12:37:48;3.27;;;2.93;;
18166;SDS011;9208;42.688;23.404;2022-10-16T12:40:30;3.17;;;2.83;;
18166;SDS011;9208;42.688;23.404;2022-10-16T12:42:59;4.80;;;2.73;;
18166;SDS011;9208;42.688;23.404;2022-10-16T12:45:35;6.47;;;3.23;;
18166;SDS011;9208;42.688;23.404;2022-10-16T12:48:02;2.80;;;2.60;;
18166;SDS011;9208;42.688;23.404;2022-10-16T12:50:43;2.70;;;2.10;;
18166;SDS011;9208;42.688;23.404;2022-10-16T12:53:20;3.53;;;2.43;;
18166;SDS011;9208;42.688;23.404;2022-10-16T12:58:47;2.73;;;2.40;;
18166;SDS011;9208;42.688;23.404;2022-10-16T13:01:54;2.87;;;2.63;;
18166;SDS011;9208;42.688;23.404;2022-10-16T13:10:26;3.20;;;2.63;;
18166;SDS011;9208;42.688;23.404;2022-10-16T13:21:17;3.80;;;2.87;;
18166;SDS011;9208;42.688;23.404;2022-10-16T13:23:55;2.60;;;2.40;;
18166;SDS011;9208;42.688;23.404;2022-10-16T13:27:28;2.70;;;2.50;;
18166;SDS011;9208;42.688;23.404;2022-10-16T13:29:33;2.60;;;2.33;;
18166;SDS011;9208;42.688;23.404;2022-10-16T13:32:00;2.53;;;2.30;;
18166;SDS011;9208;42.688;23.404;2022-10-16T13:34:32;3.43;;;2.20;;
18166;SDS011;9208;42.688;23.404;2022-10-16T13:36:57;2.53;;;2.33;;
18166;SDS011;9208;42.688;23.404;2022-10-16T13:42:03;2.40;;;2.30;;
18166;SDS011;9208;42.688;23.404;2022-10-16T13:44:35;2.83;;;2.63;;
18166;SDS011;9208;42.688;23.404;2022-10-16T13:47:05;4.37;;;2.50;;
18166;SDS011;9208;42.688;23.404;2022-10-16T13:49:30;2.40;;;2.20;;
18166;SDS011;9208;42.688;23.404;2022-10-16T13:51:59;2.40;;;2.20;;
18166;SDS011;9208;42.688;23.404;2022-10-16T13:54:25;2.03;;;1.77;;
18166;SDS011;9208;42.688;23.404;2022-10-16T13:56:53;2.17;;;1.97;;
18166;SDS011;9208;42.688;23.404;2022-10-16T13:59:33;2.37;;;2.17;;
18166;SDS011;9208;42.688;23.404;2022-10-16T14:02:00;2.40;;;2.20;;
18166;SDS011;9208;42.688;23.404;2022-10-16T14:04:39;2.17;;;2.07;;
18166;SDS011;9208;42.688;23.404;2022-10-16T14:07:05;2.93;;;2.20;;
18166;SDS011;9208;42.688;23.404;2022-10-16T14:09:32;2.63;;;2.43;;
18166;SDS011;9208;42.688;23.404;2022-10-16T14:12:01;2.10;;;1.90;;
18166;SDS011;9208;42.688;23.404;2022-10-16T14:14:39;2.53;;;1.90;;
18166;SDS011;9208;42.688;23.404;2022-10-16T14:17:13;1.90;;;1.80;;
18166;SDS011;9208;42.688;23.404;2022-10-16T14:19:50;2.77;;;2.00;;
18166;SDS011;9208;42.688;23.404;2022-10-16T14:22:38;2.10;;;1.80;;
18166;SDS011;9208;42.688;23.404;2022-10-16T14:30:27;2.23;;;1.97;;
18166;SDS011;9208;42.688;23.404;2022-10-16T14:33:01;3.73;;;2.37;;
18166;SDS011;9208;42.688;23.404;2022-10-16T14:35:35;3.83;;;2.30;;
18166;SDS011;9208;42.688;23.404;2022-10-16T14:38:05;2.20;;;2.00;;
18166;SDS011;9208;42.688;23.404;2022-10-16T14:40:32;5.03;;;2.40;;
18166;SDS011;9208;42.688;23.404;2022-10-16T14:43:04;2.60;;;2.17;;
18166;SDS011;9208;42.688;23.404;2022-10-16T14:45:31;2.43;;;2.23;;
18166;SDS011;9208;42.688;23.404;2022-10-16T14:48:00;2.43;;;2.23;;
18166;SDS011;9208;42.688;23.404;2022-10-16T14:50:30;3.27;;;2.13;;
18166;SDS011;9208;42.688;23.404;2022-10-16T14:52:55;2.67;;;2.10;;
18166;SDS011;9208;42.688;23.404;2022-10-16T14:55:21;2.73;;;1.93;;
18166;SDS011;9208;42.688;23.404;2022-10-16T14:57:47;2.57;;;2.37;;
18166;SDS011;9208;42.688;23.404;2022-10-16T15:00:17;3.20;;;2.30;;
18166;SDS011;9208;42.688;23.404;2022-10-16T15:02:45;2.93;;;2.47;;
18166;SDS011;9208;42.688;23.404;2022-10-16T15:05:21;2.47;;;2.27;;
18166;SDS011;9208;42.688;23.404;2022-10-16T15:07:49;3.20;;;2.80;;
18166;SDS011;9208;42.688;23.404;2022-10-16T15:10:16;2.70;;;2.47;;
18166;SDS011;9208;42.688;23.404;2022-10-16T15:12:42;2.50;;;2.30;;
18166;SDS011;9208;42.688;23.404;2022-10-16T15:17:56;3.53;;;2.37;;
18166;SDS011;9208;42.688;23.404;2022-10-16T15:20:33;2.57;;;2.10;;
18166;SDS011;9208;42.688;23.404;2022-10-16T15:23:03;2.93;;;2.37;;
18166;SDS011;9208;42.688;23.404;2022-10-16T15:25:44;2.50;;;2.30;;
18166;SDS011;9208;42.688;23.404;2022-10-16T15:28:11;3.70;;;2.63;;
18166;SDS011;9208;42.688;23.404;2022-10-16T15:30:38;2.67;;;2.47;;
18166;SDS011;9208;42.688;23.404;2022-10-16T15:33:05;3.77;;;2.63;;
18166;SDS011;9208;42.688;23.404;2022-10-16T15:35:36;3.53;;;2.50;;
18166;SDS011;9208;42.688;23.404;2022-10-16T15:38:01;2.50;;;2.30;;
18166;SDS011;9208;42.688;23.404;2022-10-16T15:40:27;2.67;;;2.47;;
18166;SDS011;9208;42.688;23.404;2022-10-16T15:42:52;3.33;;;2.60;;
18166;SDS011;9208;42.688;23.404;2022-10-16T15:45:17;2.63;;;2.20;;
18166;SDS011;9208;42.688;23.404;2022-10-16T15:47:44;2.93;;;2.70;;
18166;SDS011;9208;42.688;23.404;2022-10-16T15:50:11;5.00;;;2.30;;
18166;SDS011;9208;42.688;23.404;2022-10-16T15:52:37;3.40;;;2.40;;
18166;SDS011;9208;42.688;23.404;2022-10-16T15:55:05;2.63;;;2.40;;
18166;SDS011;9208;42.688;23.404;2022-10-16T15:57:34;2.57;;;2.37;;
18166;SDS011;9208;42.688;23.404;2022-10-16T16:00:03;3.70;;;2.50;;
18166;SDS011;9208;42.688;23.404;2022-10-16T16:02:32;2.90;;;2.43;;
18166;SDS011;9208;42.688;23.404;2022-10-16T16:04:58;2.60;;;2.40;;
18166;SDS011;9208;42.688;23.404;2022-10-16T16:07:23;3.10;;;2.80;;
18166;SDS011;9208;42.688;23.404;2022-10-16T16:09:49;3.00;;;2.60;;
18166;SDS011;9208;42.688;23.404;2022-10-16T16:12:14;4.80;;;3.53;;
18166;SDS011;9208;42.688;23.404;2022-10-16T16:14:40;2.90;;;2.70;;
18166;SDS011;9208;42.688;23.404;2022-10-16T16:17:05;2.80;;;2.60;;
18166;SDS011;9208;42.688;23.404;2022-10-16T16:19:31;3.57;;;2.57;;
18166;SDS011;9208;42.688;23.404;2022-10-16T16:21:57;3.03;;;2.40;;
18166;SDS011;9208;42.688;23.404;2022-10-16T16:24:22;4.03;;;2.40;;
18166;SDS011;9208;42.688;23.404;2022-10-16T16:26:48;2.70;;;2.50;;
18166;SDS011;9208;42.688;23.404;2022-10-16T16:29:14;2.40;;;2.20;;
18166;SDS011;9208;42.688;23.404;2022-10-16T16:31:44;2.43;;;2.23;;
18166;SDS011;9208;42.688;23.404;2022-10-16T16:34:11;4.00;;;3.10;;
18166;SDS011;9208;42.688;23.404;2022-10-16T16:36:38;5.00;;;2.97;;
18166;SDS011;9208;42.688;23.404;2022-10-16T16:39:04;7.37;;;3.17;;
18166;SDS011;9208;42.688;23.404;2022-10-16T16:41:31;3.00;;;2.73;;
18166;SDS011;9208;42.688;23.404;2022-10-16T16:44:04;4.43;;;3.13;;
18166;SDS011;9208;42.688;23.404;2022-10-16T16:46:31;2.87;;;2.57;;
18166;SDS011;9208;42.688;23.404;2022-10-16T16:48:58;3.40;;;2.70;;
18166;SDS011;9208;42.688;23.404;2022-10-16T16:51:24;3.20;;;2.57;;
18166;SDS011;9208;42.688;23.404;2022-10-16T16:53:50;5.10;;;2.77;;
18166;SDS011;9208;42.688;23.404;2022-10-16T16:56:18;3.90;;;2.70;;
18166;SDS011;9208;42.688;23.404;2022-10-16T16:58:47;2.93;;;2.73;;
18166;SDS011;9208;42.688;23.404;2022-10-16T17:01:13;4.13;;;2.70;;